Long Beach, WA (98631)

11:17 PM PST on February 26, 2017 (GMT -0800)
81st and Sandridge Rd | | Change Station

Elev 15 ft 46.36 °N, 124.03 °W | Updated 2 seconds ago

Partly Cloudy
Partly Cloudy
31.0 °F
Feels Like 31 °F
N
0.0
Wind Variable Wind from ENE
Gusts 0.0 mph

Today
High -- | Low -- °F
--% Chance of Precip.
Yesterday
High -- | Low -- °F
Precip. -- in
Pressure 29.78 in
Visibility 10.0 miles
Clouds Clear
Windchill 31 °F
Dew Point 30 °F
Humidity 94%
Rainfall 0.51 in
Snow Depth Not available.
7:00 AM 5:58 PM
New Moon, 1% visible
METAR KAST 270655Z AUTO 15003KT 10SM CLR 01/M01 A2977 RMK AO2 SLP082 T00061006
Pressure 29.78 in
Visibility 10.0 miles
Clouds Clear
Windchill 31 °F
Dew Point 30 °F
Humidity 94%
Rainfall 0.51 in
Snow Depth Not available.
7:00 AM 5:58 PM
New Moon, 1% visible
METAR KAST 270655Z AUTO 15003KT 10SM CLR 01/M01 A2977 RMK AO2 SLP082 T00061006

Get Your Daily Forecast Email!

Thanks for signing up!

Be on the lookout for a verification email in your inbox.

You'll start receiving the daily forecast at 8 AM.

×

10-Day Weather Forecast

Almanac

Astronomy

Feb. 26, 2017 Rise Set
Actual Time
Civil Twilight
Nautical Twilight
Astronomical Twilight
Moon
Length of Visible Light
Length of Day
Tomorrow will be .
, % of the Moon is Illuminated

Today's Extremes

State Highs State Lows

Community

WunderPhotos

Upload Photos

1,962,540 photos uploaded!

WunderBlog® & News

Nearby

Air Quality

  Air Quality AQ Index Pollutant
Not available.

Snow Depth

Station Depth Elevation

Earthquake Activity

City Distance Mag. Time & Date
Minimum magnitude displayed is 2.5.

Coastal Water Temperatures

Place Temperature

Stations

Nearby Weather Stations

Station Location Temp. Windchill Dew Point Humidity Wind Precip. Elev Updated Type
                   

Watches & Warnings

There are currently no watches in effect.